Nearby METAR Reports

 

KHFD - Hartford/Brainar, Connecticut, USA
Distance from station: ESE 5mi, 8km
Updated: Mon, 20-May-2024 2:53am EDT
Mostly cloudy
Mostly cloudy
 Wind from N
Wind: N 6 mph , 9 km/h
Temperature: 55°F , 13°C
Dew Point: 52°F , 11°C
Humidity: 88%
Barometer: 30.03 inHg , 1016.9 hPa
Clouds: Mostly cloudy
Visibility: 10 miles , 16 km
Cloud details: Mostly cloudy 1600 ft
2024/05/20 06:53 KHFD 200653Z AUTO 01005KT 10SM BKN016 13/11 A3003 RMK AO2 SLP170 T01330106
KBDL - Windsor Locks, Connecticut, USA
Distance from station: NNE 12mi, 20km
Updated: Mon, 20-May-2024 2:51am EDT
Mostly cloudy
Mostly cloudy
 Wind from NNW
Wind: NNW 3 mph , 6 km/h
Temperature: 52°F , 11°C
Dew Point: 48°F , 9°C
Humidity: 88%
Barometer: 30.05 inHg , 1017.6 hPa
Clouds: Mostly cloudy
Visibility: 10 miles , 16 km
Cloud details: Few Clouds 1500 ft
Mostly cloudy 6500 ft
2024/05/20 06:51 KBDL 200651Z 34003KT 10SM FEW015 BKN065 11/09 A3005 RMK AO2 SLP174 T01110094
 
KMMK - Meriden, Connecticut, USA
Distance from station: SSW 18mi, 28km
Updated: Mon, 20-May-2024 2:53am EDT
Clear
Clear
 Wind from calm
Wind: Calm
Temperature: 54°F , 12°C
Dew Point: 48°F , 9°C
Humidity: 82%
Barometer: 30.04 inHg , 1017.3 hPa
Clouds: Clear
Visibility: 10 miles , 16 km
2024/05/20 06:53 KMMK 200653Z AUTO 00000KT 10SM CLR 12/09 A3004 RMK AO2 SLP171 T01170094
KBAF - Westfield, Massachusetts, USA
Distance from station: N 28mi, 45km
Updated: Mon, 20-May-2024 2:53am EDT
Partly cloudy
Partly cloudy
 Wind from calm
Wind: Calm
Temperature: 54°F , 12°C
Dew Point: 52°F , 11°C
Humidity: 94%
Barometer: 30.05 inHg , 1017.6 hPa
Clouds: Partly cloudy
Visibility: 10 miles , 16 km
Cloud details: Partly cloudy 1600 ft
2024/05/20 06:53 KBAF 200653Z AUTO 00000KT 10SM SCT016 12/11 A3005 RMK AO2 SLP174 T01170106
 
KIJD - Willimantic, Connecticut, USA
Distance from station: E 29mi, 46km
Updated: Mon, 20-May-2024 2:52am EDT
Overcast
Overcast
 Wind from NNE
Wind: NNE 8 mph , 13 km/h
Temperature: 55°F , 13°C
Dew Point: 52°F , 11°C
Humidity: 88%
Barometer: 30.04 inHg , 1017.3 hPa
Clouds: Overcast
Visibility: 10 miles , 16 km
Cloud details: Overcast 1200 ft
2024/05/20 06:52 KIJD 200652Z AUTO 03007KT 10SM OVC012 13/11 A3004 RMK AO2 SLP172 T01280106
KOXC - Oxford/Waterbury, Connecticut, USA
Distance from station: SW 29mi, 46km
Updated: Mon, 20-May-2024 2:51am EDT
Clear
Clear
 Wind from varies
Wind: varies 5 mph , 7 km/h
Temperature: 54°F , 12°C
Dew Point: 52°F , 11°C
Humidity: 94%
Barometer: 30.05 inHg , 1017.6 hPa
Clouds: Clear
Visibility: 10 miles , 16 km
2024/05/20 06:51 KOXC 200651Z AUTO VRB04KT 10SM CLR 12/11 A3005 RMK AO2 SLP187 T01170106
 
KSNC - Chester, Connecticut, USA
Distance from station: SSE 29mi, 47km
Updated: Mon, 20-May-2024 2:55am EDT

 Wind from N
Wind: N 5 mph , 7 km/h
Temperature: 55°F , 13°C
Dew Point: 55°F , 13°C
Humidity: 100%
Barometer: 30.03 inHg , 1016.9 hPa
Visibility: 10 miles , 16 km
2024/05/20 06:55 KSNC 200655Z AUTO 01004KT 10SM 13/13 A3003 RMK AO2
KCEF - Chicopee/Westove, Massachusetts, USA
Distance from station: NNE 32mi, 52km
Updated: Mon, 20-May-2024 2:55am EDT
Overcast
Overcast
 Wind from ENE
Wind: ENE 7 mph , 11 km/h
Temperature: 55°F , 13°C
Dew Point: 52°F , 11°C
Humidity: 88%
Barometer: 30.02 inHg , 1016.6 hPa
Clouds: Overcast
Visibility: 10 miles , 16 km
Cloud details: Overcast 1100 ft
2024/05/20 06:55 KCEF 200655Z AUTO 06006KT 10SM OVC011 13/11 A3002 RMK AO2 SLP171 T01290106
 
KHVN - New Haven/Tweed, Connecticut, USA
Distance from station: S 35mi, 56km
Updated: Mon, 20-May-2024 2:53am EDT
Clear
Clear
 Wind from calm
Wind: Calm
Temperature: 55°F , 13°C
Dew Point: 52°F , 11°C
Humidity: 88%
Barometer: 30.03 inHg , 1016.9 hPa
Clouds: Clear
Visibility: 10 miles , 16 km
2024/05/20 06:53 KHVN 200653Z AUTO 00000KT 10SM CLR 13/11 A3003 RMK AO2 SLP168 T01330111 $
KBDR - Bridgeport, Connecticut, USA
Distance from station: SSW 46mi, 74km
Updated: Mon, 20-May-2024 2:52am EDT
Clear
Clear
 Wind from NNE
Wind: NNE 5 mph , 7 km/h
Temperature: 55°F , 13°C
Dew Point: 54°F , 12°C
Humidity: 94%
Barometer: 30.03 inHg , 1016.9 hPa
Clouds: Clear
Visibility: 10 miles , 16 km
2024/05/20 06:52 KBDR 200652Z AUTO 02004KT 10SM CLR 13/12 A3003 RMK AO2 SLP168 T01330117
 
KGON - Groton/New Londo, Connecticut, USA
Distance from station: SE 46mi, 75km
Updated: Mon, 20-May-2024 2:56am EDT
Clear
Clear
 Wind from calm
Wind: Calm
Temperature: 52°F , 11°C
Dew Point: 52°F , 11°C
Humidity: 100%
Barometer: 30.01 inHg , 1016.3 hPa
Clouds: Clear
Visibility: 10 miles , 16 km
2024/05/20 06:56 KGON 200656Z AUTO 00000KT 10SM CLR 11/11 A3001 RMK AO2 SLP162 T01110106 $
KDXR - Danbury, Connecticut, USA
Distance from station: SW 47mi, 76km
Updated: Mon, 20-May-2024 2:53am EDT
Clear
Clear
 Wind from SW
Wind: SW 3 mph , 6 km/h
Temperature: 52°F , 11°C
Dew Point: 48°F , 9°C
Humidity: 88%
Barometer: 30.04 inHg , 1017.3 hPa
Clouds: Clear
Visibility: 10 miles , 16 km
2024/05/20 06:53 KDXR 200653Z AUTO 23003KT 10SM CLR 11/09 A3004 RMK AO2 SLP172 T01110094 $
 
KPSF - Pittsfield, Massachusetts, USA
Distance from station: NNW 54mi, 87km
Updated: Mon, 20-May-2024 2:54am EDT
Partly cloudy
Partly cloudy
 Wind from calm
Wind: Calm
Temperature: 50°F , 10°C
Dew Point: 48°F , 9°C
Humidity: 94%
Barometer: 30.04 inHg , 1017.3 hPa
Clouds: Partly cloudy
Visibility: 10 miles , 16 km
Cloud details: Partly cloudy 5500 ft
2024/05/20 06:54 KPSF 200654Z AUTO 00000KT 10SM SCT055 10/09 A3004 RMK AO2 SLP154 T01000094
KWST - Westerly, Rhode Island, USA
Distance from station: ESE 56mi, 91km
Updated: Mon, 20-May-2024 2:53am EDT
Overcast
Overcast
 Wind from N
Wind: N 8 mph , 13 km/h
Temperature: 54°F , 12°C
Dew Point: 48°F , 9°C
Humidity: 82%
Barometer: 30.02 inHg , 1016.6 hPa
Clouds: Overcast
Visibility: 10 miles , 16 km
Cloud details: Overcast 1100 ft
2024/05/20 06:53 KWST 200653Z AUTO 01007KT 10SM OVC011 12/09 A3002 RMK AO2 SLP164 T01220094
 
KORH - Worcester, Massachusetts, USA
Distance from station: NE 57mi, 92km
Updated: Mon, 20-May-2024 2:54am EDT
Overcast
Overcast
 Wind from NE
Wind: NE 6 mph , 9 km/h
Temperature: 54°F , 12°C
Dew Point: 50°F , 10°C
Humidity: 88%
Barometer: 30.03 inHg , 1016.9 hPa
Clouds: Overcast
Visibility: 10 miles , 16 km
Cloud details: Overcast 400 ft
2024/05/20 06:54 KORH 200654Z AUTO 05005KT 10SM OVC004 12/10 A3003 RMK AO2 SLP172 T01170100
KPOU - Poughkeepsie, New York, USA
Distance from station: W 60mi, 96km
Updated: Mon, 20-May-2024 2:53am EDT
Clear
Clear
 Wind from calm
Wind: Calm
Temperature: 54°F , 12°C
Dew Point: 52°F , 11°C
Humidity: 94%
Barometer: 30.02 inHg , 1016.6 hPa
Clouds: Clear
Visibility: 10 miles , 16 km
2024/05/20 06:53 KPOU 200653Z AUTO 00000KT 10SM CLR 12/11 A3002 RMK AO2 SLP163 T01170111
 
KORE - Orange, Massachusetts, USA
Distance from station: NNE 60mi, 97km
Updated: Mon, 20-May-2024 2:52am EDT
Overcast
Overcast
 Wind from ESE
Wind: ESE 3 mph , 6 km/h
Temperature: 54°F , 12°C
Dew Point: 50°F , 10°C
Humidity: 88%
Barometer: 30.06 inHg , 1017.9 hPa
Clouds: Overcast
Visibility: 10 miles , 16 km
Cloud details: Overcast 1000 ft
2024/05/20 06:52 KORE 200652Z AUTO 12003KT 10SM OVC010 12/10 A3006 RMK AO2 SLP179 T01220100
KHTO - East Hampton, New York, USA
Distance from station: SSE 62mi, 99km
Updated: Sat, 21-May-2022 1:35pm EDT
NOT Current
Clear
Clear
 Wind from WNW
Wind: WNW 5 mph , 7 km/h
Temperature: 81°F , 27°C
Heat Index: 83°F , 28°C
Dew Point: 66°F , 19°C
Humidity: 62%
Barometer: 30.00 inHg , 1015.9 hPa
Clouds: Clear
Visibility: 10 miles , 16 km
2022/05/21 17:35 KHTO 211735Z AUTO 30004KT 10SM CLR 27/19 A3000 RMK AO2 T02670193
 
KFOK - Westhampton Beac, New York, USA
Distance from station: S 63mi, 102km
Updated: Mon, 20-May-2024 2:53am EDT
Overcast
Overcast
 Wind from calm
Wind: Calm
Temperature: 54°F , 12°C
Dew Point: 52°F , 11°C
Humidity: 94%
Barometer: 30.04 inHg , 1017.3 hPa
Clouds: Overcast
Visibility: 10 miles , 16 km
Cloud details: Overcast 1500 ft
2024/05/20 06:53 KFOK 200653Z AUTO 00000KT 10SM OVC015 12/11 A3004 RMK AO2 SLP170 T01170106
KMTP - Montauk, New York, USA
Distance from station: SE 64mi, 104km
Updated: Mon, 20-May-2024 2:54am EDT

 Wind from NNE
Wind: NNE 5 mph , 7 km/h
Temperature: 55°F , 13°C
Dew Point: 52°F , 11°C
Humidity: 88%
Barometer: 30.03 inHg , 1016.9 hPa
2024/05/20 06:54 KMTP 200654Z AUTO 02004KT 13/11 A3003 RMK AO1 SLP168 T01330106